sensor_id;sensor_type;location;lat;lon;timestamp;temperature;humidity
12446;DHT22;6287;50.984;7.022;2022-12-11T00:02:19;1.10;99.90
12446;DHT22;6287;50.984;7.022;2022-12-11T00:04:45;1.10;99.90
12446;DHT22;6287;50.984;7.022;2022-12-11T00:07:11;1.10;99.90
12446;DHT22;6287;50.984;7.022;2022-12-11T00:09:41;1.10;99.90
12446;DHT22;6287;50.984;7.022;2022-12-11T00:12:06;1.10;99.90
12446;DHT22;6287;50.984;7.022;2022-12-11T00:14:34;1.10;99.90
12446;DHT22;6287;50.984;7.022;2022-12-11T00:17:00;1.10;99.90
12446;DHT22;6287;50.984;7.022;2022-12-11T00:19:26;1.10;99.90
12446;DHT22;6287;50.984;7.022;2022-12-11T00:21:53;1.10;99.90
12446;DHT22;6287;50.984;7.022;2022-12-11T00:24:19;1.10;99.90
12446;DHT22;6287;50.984;7.022;2022-12-11T00:26:47;1.10;99.90
12446;DHT22;6287;50.984;7.022;2022-12-11T00:29:12;1.10;99.90
12446;DHT22;6287;50.984;7.022;2022-12-11T00:31:40;1.10;99.90
12446;DHT22;6287;50.984;7.022;2022-12-11T00:34:06;1.10;99.90
12446;DHT22;6287;50.984;7.022;2022-12-11T00:36:37;1.10;99.90
12446;DHT22;6287;50.984;7.022;2022-12-11T00:39:07;1.10;99.90
12446;DHT22;6287;50.984;7.022;2022-12-11T00:41:33;1.20;99.90
12446;DHT22;6287;50.984;7.022;2022-12-11T00:43:58;1.20;99.90
12446;DHT22;6287;50.984;7.022;2022-12-11T00:46:24;1.20;99.90
12446;DHT22;6287;50.984;7.022;2022-12-11T00:48:50;1.20;99.90
12446;DHT22;6287;50.984;7.022;2022-12-11T00:51:18;1.20;99.90
12446;DHT22;6287;50.984;7.022;2022-12-11T00:53:49;1.20;99.90
12446;DHT22;6287;50.984;7.022;2022-12-11T00:56:20;1.20;99.90
12446;DHT22;6287;50.984;7.022;2022-12-11T00:58:47;1.20;99.90
12446;DHT22;6287;50.984;7.022;2022-12-11T01:01:16;1.10;99.90
12446;DHT22;6287;50.984;7.022;2022-12-11T01:06:16;1.20;99.90
12446;DHT22;6287;50.984;7.022;2022-12-11T01:08:45;1.20;99.90
12446;DHT22;6287;50.984;7.022;2022-12-11T01:11:13;1.20;99.90
12446;DHT22;6287;50.984;7.022;2022-12-11T01:13:39;1.20;99.90
12446;DHT22;6287;50.984;7.022;2022-12-11T01:16:13;1.20;99.90
12446;DHT22;6287;50.984;7.022;2022-12-11T01:18:41;1.20;99.90
12446;DHT22;6287;50.984;7.022;2022-12-11T01:21:12;1.30;99.90
12446;DHT22;6287;50.984;7.022;2022-12-11T01:23:41;1.20;99.90
12446;DHT22;6287;50.984;7.022;2022-12-11T01:26:09;1.20;99.90
12446;DHT22;6287;50.984;7.022;2022-12-11T01:28:36;1.20;99.90
12446;DHT22;6287;50.984;7.022;2022-12-11T01:31:06;1.20;99.90
12446;DHT22;6287;50.984;7.022;2022-12-11T01:33:36;1.20;99.90
12446;DHT22;6287;50.984;7.022;2022-12-11T01:36:16;1.20;99.90
12446;DHT22;6287;50.984;7.022;2022-12-11T01:38:48;1.20;99.90
12446;DHT22;6287;50.984;7.022;2022-12-11T01:41:20;1.20;99.90
12446;DHT22;6287;50.984;7.022;2022-12-11T01:46:31;1.30;99.90
12446;DHT22;6287;50.984;7.022;2022-12-11T01:48:58;1.20;99.90
12446;DHT22;6287;50.984;7.022;2022-12-11T01:51:25;1.20;99.90
12446;DHT22;6287;50.984;7.022;2022-12-11T01:53:56;1.10;99.90
12446;DHT22;6287;50.984;7.022;2022-12-11T01:56:28;1.10;99.90
12446;DHT22;6287;50.984;7.022;2022-12-11T01:59:01;1.20;99.90
12446;DHT22;6287;50.984;7.022;2022-12-11T02:01:39;1.10;99.90
12446;DHT22;6287;50.984;7.022;2022-12-11T02:04:07;1.10;99.90
12446;DHT22;6287;50.984;7.022;2022-12-11T02:09:08;1.10;99.90
12446;DHT22;6287;50.984;7.022;2022-12-11T02:11:48;1.10;99.90
12446;DHT22;6287;50.984;7.022;2022-12-11T02:14:41;1.10;99.90
12446;DHT22;6287;50.984;7.022;2022-12-11T02:17:28;1.10;99.90
12446;DHT22;6287;50.984;7.022;2022-12-11T02:20:06;1.10;99.90
12446;DHT22;6287;50.984;7.022;2022-12-11T02:28:19;1.10;99.90
12446;DHT22;6287;50.984;7.022;2022-12-11T02:30:53;1.10;99.90
12446;DHT22;6287;50.984;7.022;2022-12-11T02:33:37;1.10;99.90
12446;DHT22;6287;50.984;7.022;2022-12-11T02:36:07;1.10;99.90
12446;DHT22;6287;50.984;7.022;2022-12-11T02:38:39;1.10;99.90
12446;DHT22;6287;50.984;7.022;2022-12-11T02:41:09;1.10;99.90
12446;DHT22;6287;50.984;7.022;2022-12-11T02:43:38;1.10;99.90
12446;DHT22;6287;50.984;7.022;2022-12-11T02:46:08;1.10;99.90
12446;DHT22;6287;50.984;7.022;2022-12-11T02:48:35;1.10;99.90
12446;DHT22;6287;50.984;7.022;2022-12-11T02:51:02;1.20;99.90
12446;DHT22;6287;50.984;7.022;2022-12-11T02:53:31;1.10;99.90
12446;DHT22;6287;50.984;7.022;2022-12-11T02:56:21;1.10;99.90
12446;DHT22;6287;50.984;7.022;2022-12-11T02:58:53;1.20;99.90
12446;DHT22;6287;50.984;7.022;2022-12-11T03:01:19;1.20;99.90
12446;DHT22;6287;50.984;7.022;2022-12-11T03:03:47;1.20;99.90
12446;DHT22;6287;50.984;7.022;2022-12-11T03:06:16;1.20;99.90
12446;DHT22;6287;50.984;7.022;2022-12-11T03:08:43;1.20;99.90
12446;DHT22;6287;50.984;7.022;2022-12-11T03:11:12;1.20;99.90
12446;DHT22;6287;50.984;7.022;2022-12-11T03:13:40;1.30;99.90
12446;DHT22;6287;50.984;7.022;2022-12-11T03:16:34;1.20;99.90
12446;DHT22;6287;50.984;7.022;2022-12-11T03:21:47;1.20;99.90
12446;DHT22;6287;50.984;7.022;2022-12-11T03:26:48;1.30;99.90
12446;DHT22;6287;50.984;7.022;2022-12-11T03:29:23;1.20;99.90
12446;DHT22;6287;50.984;7.022;2022-12-11T03:32:18;1.20;99.90
12446;DHT22;6287;50.984;7.022;2022-12-11T03:37:36;1.10;99.90
12446;DHT22;6287;50.984;7.022;2022-12-11T03:40:10;1.20;99.90
12446;DHT22;6287;50.984;7.022;2022-12-11T03:42:39;1.10;99.90
12446;DHT22;6287;50.984;7.022;2022-12-11T03:45:07;1.10;99.90
12446;DHT22;6287;50.984;7.022;2022-12-11T03:47:41;1.10;99.90
12446;DHT22;6287;50.984;7.022;2022-12-11T03:50:15;1.10;99.90
12446;DHT22;6287;50.984;7.022;2022-12-11T03:52:43;1.10;99.90
12446;DHT22;6287;50.984;7.022;2022-12-11T03:55:12;1.10;99.90
12446;DHT22;6287;50.984;7.022;2022-12-11T03:57:39;1.10;99.90
12446;DHT22;6287;50.984;7.022;2022-12-11T04:00:16;1.10;99.90
12446;DHT22;6287;50.984;7.022;2022-12-11T04:02:42;1.10;99.90
12446;DHT22;6287;50.984;7.022;2022-12-11T04:05:10;1.20;99.90
12446;DHT22;6287;50.984;7.022;2022-12-11T04:07:38;1.20;99.90
12446;DHT22;6287;50.984;7.022;2022-12-11T04:10:04;1.20;99.90
12446;DHT22;6287;50.984;7.022;2022-12-11T04:12:30;1.20;99.90
12446;DHT22;6287;50.984;7.022;2022-12-11T04:14:58;1.20;99.90
12446;DHT22;6287;50.984;7.022;2022-12-11T04:17:30;1.20;99.90
12446;DHT22;6287;50.984;7.022;2022-12-11T04:20:15;1.20;99.90
12446;DHT22;6287;50.984;7.022;2022-12-11T04:23:01;1.20;99.90
12446;DHT22;6287;50.984;7.022;2022-12-11T04:25:49;1.20;99.90
12446;DHT22;6287;50.984;7.022;2022-12-11T04:28:17;1.10;99.90
12446;DHT22;6287;50.984;7.022;2022-12-11T04:30:48;1.10;99.90
12446;DHT22;6287;50.984;7.022;2022-12-11T04:33:14;1.10;99.90
12446;DHT22;6287;50.984;7.022;2022-12-11T04:35:40;1.20;99.90
12446;DHT22;6287;50.984;7.022;2022-12-11T04:38:05;1.20;99.90
12446;DHT22;6287;50.984;7.022;2022-12-11T04:40:35;1.10;99.90
12446;DHT22;6287;50.984;7.022;2022-12-11T04:43:05;1.10;99.90
12446;DHT22;6287;50.984;7.022;2022-12-11T04:45:31;1.00;99.90
12446;DHT22;6287;50.984;7.022;2022-12-11T04:47:59;1.00;99.90
12446;DHT22;6287;50.984;7.022;2022-12-11T04:50:27;1.00;99.90
12446;DHT22;6287;50.984;7.022;2022-12-11T04:52:56;1.00;99.90
12446;DHT22;6287;50.984;7.022;2022-12-11T04:55:22;1.10;99.90
12446;DHT22;6287;50.984;7.022;2022-12-11T04:57:52;1.10;99.90
12446;DHT22;6287;50.984;7.022;2022-12-11T05:00:20;1.10;99.90
12446;DHT22;6287;50.984;7.022;2022-12-11T05:02:45;1.10;99.90
12446;DHT22;6287;50.984;7.022;2022-12-11T05:05:11;1.10;99.90
12446;DHT22;6287;50.984;7.022;2022-12-11T05:07:37;1.20;99.90
12446;DHT22;6287;50.984;7.022;2022-12-11T05:10:05;1.20;99.90
12446;DHT22;6287;50.984;7.022;2022-12-11T05:12:32;1.20;99.90
12446;DHT22;6287;50.984;7.022;2022-12-11T05:15:00;1.30;99.90
12446;DHT22;6287;50.984;7.022;2022-12-11T05:17:25;1.30;99.90
12446;DHT22;6287;50.984;7.022;2022-12-11T05:19:56;1.30;99.90
12446;DHT22;6287;50.984;7.022;2022-12-11T05:22:24;1.30;99.90
12446;DHT22;6287;50.984;7.022;2022-12-11T05:24:52;1.30;99.90
12446;DHT22;6287;50.984;7.022;2022-12-11T05:27:22;1.30;99.90
12446;DHT22;6287;50.984;7.022;2022-12-11T05:29:48;1.40;99.90
12446;DHT22;6287;50.984;7.022;2022-12-11T05:32:13;1.40;99.90
12446;DHT22;6287;50.984;7.022;2022-12-11T05:34:41;1.40;99.90
12446;DHT22;6287;50.984;7.022;2022-12-11T05:37:07;1.40;99.90
12446;DHT22;6287;50.984;7.022;2022-12-11T05:39:32;1.40;99.90
12446;DHT22;6287;50.984;7.022;2022-12-11T05:42:00;1.40;99.90
12446;DHT22;6287;50.984;7.022;2022-12-11T05:44:29;1.40;99.90
12446;DHT22;6287;50.984;7.022;2022-12-11T05:46:54;1.50;99.90
12446;DHT22;6287;50.984;7.022;2022-12-11T05:49:23;1.50;99.90
12446;DHT22;6287;50.984;7.022;2022-12-11T05:51:51;1.50;99.90
12446;DHT22;6287;50.984;7.022;2022-12-11T05:54:16;1.50;99.90
12446;DHT22;6287;50.984;7.022;2022-12-11T05:56:44;1.50;99.90
12446;DHT22;6287;50.984;7.022;2022-12-11T05:59:10;1.40;99.90
12446;DHT22;6287;50.984;7.022;2022-12-11T06:01:42;1.40;99.90
12446;DHT22;6287;50.984;7.022;2022-12-11T06:04:10;1.40;99.90
12446;DHT22;6287;50.984;7.022;2022-12-11T06:06:39;1.40;99.90
12446;DHT22;6287;50.984;7.022;2022-12-11T06:09:05;1.40;99.90
12446;DHT22;6287;50.984;7.022;2022-12-11T06:11:32;1.40;99.90
12446;DHT22;6287;50.984;7.022;2022-12-11T06:13:58;1.40;99.90
12446;DHT22;6287;50.984;7.022;2022-12-11T06:16:27;1.40;99.90
12446;DHT22;6287;50.984;7.022;2022-12-11T06:18:52;1.40;99.90
12446;DHT22;6287;50.984;7.022;2022-12-11T06:21:26;1.40;99.90
12446;DHT22;6287;50.984;7.022;2022-12-11T06:23:56;1.40;99.90
12446;DHT22;6287;50.984;7.022;2022-12-11T06:26:22;1.40;99.90
12446;DHT22;6287;50.984;7.022;2022-12-11T06:28:48;1.40;99.90
12446;DHT22;6287;50.984;7.022;2022-12-11T06:31:17;1.40;99.90
12446;DHT22;6287;50.984;7.022;2022-12-11T06:33:43;1.40;99.90
12446;DHT22;6287;50.984;7.022;2022-12-11T06:36:16;1.40;99.90
12446;DHT22;6287;50.984;7.022;2022-12-11T06:38:43;1.40;99.90
12446;DHT22;6287;50.984;7.022;2022-12-11T06:41:08;1.50;99.90
12446;DHT22;6287;50.984;7.022;2022-12-11T06:43:36;1.50;99.90
12446;DHT22;6287;50.984;7.022;2022-12-11T06:46:10;1.50;99.90
12446;DHT22;6287;50.984;7.022;2022-12-11T06:48:36;1.50;99.90
12446;DHT22;6287;50.984;7.022;2022-12-11T06:51:13;1.50;99.90
12446;DHT22;6287;50.984;7.022;2022-12-11T06:53:39;1.50;99.90
12446;DHT22;6287;50.984;7.022;2022-12-11T06:56:09;1.50;99.90
12446;DHT22;6287;50.984;7.022;2022-12-11T06:58:36;1.50;99.90
12446;DHT22;6287;50.984;7.022;2022-12-11T07:01:21;1.50;99.90
12446;DHT22;6287;50.984;7.022;2022-12-11T07:03:55;1.50;99.90
12446;DHT22;6287;50.984;7.022;2022-12-11T07:06:21;1.50;99.90
12446;DHT22;6287;50.984;7.022;2022-12-11T07:08:49;1.40;99.90
12446;DHT22;6287;50.984;7.022;2022-12-11T07:11:16;1.30;99.90
12446;DHT22;6287;50.984;7.022;2022-12-11T07:13:42;1.40;99.90
12446;DHT22;6287;50.984;7.022;2022-12-11T07:16:09;1.40;99.90
12446;DHT22;6287;50.984;7.022;2022-12-11T07:18:55;1.40;99.90
12446;DHT22;6287;50.984;7.022;2022-12-11T07:21:20;1.40;99.90
12446;DHT22;6287;50.984;7.022;2022-12-11T07:23:49;1.40;99.90
12446;DHT22;6287;50.984;7.022;2022-12-11T07:26:17;1.30;99.90
12446;DHT22;6287;50.984;7.022;2022-12-11T07:28:43;1.30;99.90
12446;DHT22;6287;50.984;7.022;2022-12-11T07:31:11;1.30;99.90
12446;DHT22;6287;50.984;7.022;2022-12-11T07:33:37;1.30;99.90
12446;DHT22;6287;50.984;7.022;2022-12-11T07:36:05;1.40;99.90
12446;DHT22;6287;50.984;7.022;2022-12-11T07:38:36;1.40;99.90
12446;DHT22;6287;50.984;7.022;2022-12-11T07:41:06;1.40;99.90
12446;DHT22;6287;50.984;7.022;2022-12-11T07:43:33;1.40;99.90
12446;DHT22;6287;50.984;7.022;2022-12-11T07:46:03;1.50;99.90
12446;DHT22;6287;50.984;7.022;2022-12-11T07:48:29;1.50;99.90
12446;DHT22;6287;50.984;7.022;2022-12-11T07:53:53;1.50;99.90
12446;DHT22;6287;50.984;7.022;2022-12-11T07:56:20;1.50;99.90
12446;DHT22;6287;50.984;7.022;2022-12-11T07:58:51;1.50;99.90
12446;DHT22;6287;50.984;7.022;2022-12-11T08:01:24;1.50;99.90
12446;DHT22;6287;50.984;7.022;2022-12-11T08:03:52;1.50;99.90
12446;DHT22;6287;50.984;7.022;2022-12-11T08:06:19;1.50;99.90
12446;DHT22;6287;50.984;7.022;2022-12-11T08:08:45;1.50;99.90
12446;DHT22;6287;50.984;7.022;2022-12-11T08:11:15;1.50;99.90
12446;DHT22;6287;50.984;7.022;2022-12-11T08:13:43;1.60;99.90
12446;DHT22;6287;50.984;7.022;2022-12-11T08:16:11;1.60;99.90
12446;DHT22;6287;50.984;7.022;2022-12-11T08:18:41;1.60;99.90
12446;DHT22;6287;50.984;7.022;2022-12-11T08:21:18;1.70;99.90
12446;DHT22;6287;50.984;7.022;2022-12-11T08:23:44;1.70;99.90
12446;DHT22;6287;50.984;7.022;2022-12-11T08:26:13;1.60;99.90
12446;DHT22;6287;50.984;7.022;2022-12-11T08:28:39;1.60;99.90
12446;DHT22;6287;50.984;7.022;2022-12-11T08:31:07;1.60;99.90
12446;DHT22;6287;50.984;7.022;2022-12-11T08:33:41;1.60;99.90
12446;DHT22;6287;50.984;7.022;2022-12-11T08:36:09;1.60;99.90
12446;DHT22;6287;50.984;7.022;2022-12-11T08:38:37;1.60;99.90
12446;DHT22;6287;50.984;7.022;2022-12-11T08:43:37;1.60;99.90
12446;DHT22;6287;50.984;7.022;2022-12-11T08:46:06;1.70;99.90
12446;DHT22;6287;50.984;7.022;2022-12-11T08:48:35;1.70;99.90
12446;DHT22;6287;50.984;7.022;2022-12-11T08:51:05;1.70;99.90
12446;DHT22;6287;50.984;7.022;2022-12-11T08:53:31;1.70;99.90
12446;DHT22;6287;50.984;7.022;2022-12-11T08:56:05;1.70;99.90
12446;DHT22;6287;50.984;7.022;2022-12-11T08:58:33;1.70;99.90
12446;DHT22;6287;50.984;7.022;2022-12-11T09:01:13;1.80;99.90
12446;DHT22;6287;50.984;7.022;2022-12-11T09:03:39;1.80;99.90
12446;DHT22;6287;50.984;7.022;2022-12-11T09:06:07;1.80;99.90
12446;DHT22;6287;50.984;7.022;2022-12-11T09:08:34;1.90;99.90
12446;DHT22;6287;50.984;7.022;2022-12-11T09:11:08;1.80;99.90
12446;DHT22;6287;50.984;7.022;2022-12-11T09:13:37;1.90;99.90
12446;DHT22;6287;50.984;7.022;2022-12-11T09:16:05;1.80;99.90
12446;DHT22;6287;50.984;7.022;2022-12-11T09:18:33;1.90;99.90
12446;DHT22;6287;50.984;7.022;2022-12-11T09:21:04;1.90;99.90
12446;DHT22;6287;50.984;7.022;2022-12-11T09:23:30;1.90;99.90
12446;DHT22;6287;50.984;7.022;2022-12-11T09:25:56;1.80;99.90
12446;DHT22;6287;50.984;7.022;2022-12-11T09:28:24;1.80;99.90
12446;DHT22;6287;50.984;7.022;2022-12-11T09:30:52;1.80;99.90
12446;DHT22;6287;50.984;7.022;2022-12-11T09:33:18;1.80;99.90
12446;DHT22;6287;50.984;7.022;2022-12-11T09:35:55;1.80;99.90
12446;DHT22;6287;50.984;7.022;2022-12-11T09:38:20;1.90;99.90
12446;DHT22;6287;50.984;7.022;2022-12-11T09:40:46;1.90;99.90
12446;DHT22;6287;50.984;7.022;2022-12-11T09:43:30;1.90;99.90
12446;DHT22;6287;50.984;7.022;2022-12-11T09:46:02;1.90;99.90
12446;DHT22;6287;50.984;7.022;2022-12-11T09:48:33;1.90;99.90
12446;DHT22;6287;50.984;7.022;2022-12-11T09:51:09;1.90;99.90
12446;DHT22;6287;50.984;7.022;2022-12-11T09:53:37;1.90;99.90
12446;DHT22;6287;50.984;7.022;2022-12-11T09:56:16;1.90;99.90
12446;DHT22;6287;50.984;7.022;2022-12-11T09:58:55;1.90;99.90
12446;DHT22;6287;50.984;7.022;2022-12-11T10:04:13;1.80;99.90
12446;DHT22;6287;50.984;7.022;2022-12-11T10:15:22;1.70;99.90
12446;DHT22;6287;50.984;7.022;2022-12-11T10:17:30;1.70;99.90
12446;DHT22;6287;50.984;7.022;2022-12-11T10:22:41;1.60;99.90
12446;DHT22;6287;50.984;7.022;2022-12-11T10:25:31;1.60;99.90
12446;DHT22;6287;50.984;7.022;2022-12-11T10:28:01;1.60;99.90
12446;DHT22;6287;50.984;7.022;2022-12-11T10:30:36;1.60;99.90
12446;DHT22;6287;50.984;7.022;2022-12-11T10:40:57;1.70;99.90
12446;DHT22;6287;50.984;7.022;2022-12-11T10:46:12;1.80;99.90
12446;DHT22;6287;50.984;7.022;2022-12-11T10:48:50;1.80;99.90
12446;DHT22;6287;50.984;7.022;2022-12-11T10:51:18;1.90;99.90
12446;DHT22;6287;50.984;7.022;2022-12-11T10:53:52;1.90;99.90
12446;DHT22;6287;50.984;7.022;2022-12-11T10:56:26;1.90;99.90
12446;DHT22;6287;50.984;7.022;2022-12-11T10:58:54;1.90;99.90
12446;DHT22;6287;50.984;7.022;2022-12-11T11:01:24;2.00;99.90
12446;DHT22;6287;50.984;7.022;2022-12-11T11:03:56;1.90;99.90
12446;DHT22;6287;50.984;7.022;2022-12-11T11:06:24;1.90;99.90
12446;DHT22;6287;50.984;7.022;2022-12-11T11:08:52;1.80;99.90
12446;DHT22;6287;50.984;7.022;2022-12-11T11:13:50;1.90;99.90
12446;DHT22;6287;50.984;7.022;2022-12-11T11:16:21;1.90;99.90
12446;DHT22;6287;50.984;7.022;2022-12-11T11:18:54;2.00;99.90
12446;DHT22;6287;50.984;7.022;2022-12-11T11:21:24;1.90;99.90
12446;DHT22;6287;50.984;7.022;2022-12-11T11:23:52;1.90;99.90
12446;DHT22;6287;50.984;7.022;2022-12-11T11:26:21;1.90;99.90
12446;DHT22;6287;50.984;7.022;2022-12-11T11:28:53;1.80;99.90
12446;DHT22;6287;50.984;7.022;2022-12-11T11:31:21;1.80;99.90
12446;DHT22;6287;50.984;7.022;2022-12-11T11:36:27;1.80;99.90
12446;DHT22;6287;50.984;7.022;2022-12-11T11:41:30;1.90;99.90
12446;DHT22;6287;50.984;7.022;2022-12-11T11:44:09;2.00;99.90
12446;DHT22;6287;50.984;7.022;2022-12-11T11:46:52;2.10;99.90
12446;DHT22;6287;50.984;7.022;2022-12-11T11:54:48;2.10;99.90
12446;DHT22;6287;50.984;7.022;2022-12-11T11:57:34;2.10;99.90
12446;DHT22;6287;50.984;7.022;2022-12-11T12:02:44;2.10;99.90
12446;DHT22;6287;50.984;7.022;2022-12-11T12:05:14;2.10;99.90
12446;DHT22;6287;50.984;7.022;2022-12-11T12:10:33;2.20;99.90
12446;DHT22;6287;50.984;7.022;2022-12-11T12:13:10;2.30;99.90
12446;DHT22;6287;50.984;7.022;2022-12-11T12:15:50;2.30;99.90
12446;DHT22;6287;50.984;7.022;2022-12-11T12:18:35;2.40;99.90
12446;DHT22;6287;50.984;7.022;2022-12-11T12:21:15;2.40;99.90
12446;DHT22;6287;50.984;7.022;2022-12-11T12:26:35;2.40;99.90
12446;DHT22;6287;50.984;7.022;2022-12-11T12:32:31;2.40;99.90
12446;DHT22;6287;50.984;7.022;2022-12-11T12:35:29;2.40;99.90
12446;DHT22;6287;50.984;7.022;2022-12-11T12:38:13;2.40;99.90
12446;DHT22;6287;50.984;7.022;2022-12-11T12:48:41;2.40;99.90
12446;DHT22;6287;50.984;7.022;2022-12-11T12:51:12;2.40;99.90
12446;DHT22;6287;50.984;7.022;2022-12-11T12:53:48;2.50;99.90
12446;DHT22;6287;50.984;7.022;2022-12-11T12:56:18;2.60;99.90
12446;DHT22;6287;50.984;7.022;2022-12-11T12:58:45;2.80;99.90
12446;DHT22;6287;50.984;7.022;2022-12-11T13:09:24;3.60;99.90
12446;DHT22;6287;50.984;7.022;2022-12-11T13:11:55;2.40;99.90
12446;DHT22;6287;50.984;7.022;2022-12-11T13:14:33;2.90;99.90
12446;DHT22;6287;50.984;7.022;2022-12-11T13:19:45;3.10;99.90
12446;DHT22;6287;50.984;7.022;2022-12-11T13:25:15;3.20;99.90
12446;DHT22;6287;50.984;7.022;2022-12-11T13:27:41;3.20;99.90
12446;DHT22;6287;50.984;7.022;2022-12-11T13:32:41;3.00;99.90
12446;DHT22;6287;50.984;7.022;2022-12-11T13:35:15;2.90;99.90
12446;DHT22;6287;50.984;7.022;2022-12-11T13:37:43;2.80;99.90
12446;DHT22;6287;50.984;7.022;2022-12-11T13:40:24;2.80;99.90
12446;DHT22;6287;50.984;7.022;2022-12-11T13:43:00;2.80;99.90
12446;DHT22;6287;50.984;7.022;2022-12-11T13:45:42;2.80;99.90
12446;DHT22;6287;50.984;7.022;2022-12-11T13:48:25;2.80;99.90
12446;DHT22;6287;50.984;7.022;2022-12-11T13:50:55;2.80;99.90
12446;DHT22;6287;50.984;7.022;2022-12-11T13:53:24;2.80;99.90
12446;DHT22;6287;50.984;7.022;2022-12-11T13:58:22;2.90;99.90
12446;DHT22;6287;50.984;7.022;2022-12-11T14:01:07;2.90;99.90
12446;DHT22;6287;50.984;7.022;2022-12-11T14:03:39;2.90;99.90
12446;DHT22;6287;50.984;7.022;2022-12-11T14:06:09;2.90;99.90
12446;DHT22;6287;50.984;7.022;2022-12-11T14:08:38;2.80;99.90
12446;DHT22;6287;50.984;7.022;2022-12-11T14:11:07;2.80;99.90
12446;DHT22;6287;50.984;7.022;2022-12-11T14:13:39;2.80;99.90
12446;DHT22;6287;50.984;7.022;2022-12-11T14:16:07;2.80;99.90
12446;DHT22;6287;50.984;7.022;2022-12-11T14:18:35;2.80;99.90
12446;DHT22;6287;50.984;7.022;2022-12-11T14:21:05;2.80;99.90
12446;DHT22;6287;50.984;7.022;2022-12-11T14:23:34;2.70;99.90
12446;DHT22;6287;50.984;7.022;2022-12-11T14:26:10;2.70;99.90
12446;DHT22;6287;50.984;7.022;2022-12-11T14:28:41;2.70;99.90
12446;DHT22;6287;50.984;7.022;2022-12-11T14:31:07;2.60;99.90
12446;DHT22;6287;50.984;7.022;2022-12-11T14:33:37;2.60;99.90
12446;DHT22;6287;50.984;7.022;2022-12-11T14:36:05;2.60;99.90
12446;DHT22;6287;50.984;7.022;2022-12-11T14:38:33;2.50;99.90
12446;DHT22;6287;50.984;7.022;2022-12-11T14:41:10;2.40;99.90
12446;DHT22;6287;50.984;7.022;2022-12-11T14:43:44;2.50;99.90
12446;DHT22;6287;50.984;7.022;2022-12-11T14:46:22;4.70;99.90
12446;DHT22;6287;50.984;7.022;2022-12-11T14:49:00;2.40;99.90
12446;DHT22;6287;50.984;7.022;2022-12-11T14:51:33;2.40;99.90
12446;DHT22;6287;50.984;7.022;2022-12-11T14:54:02;2.40;99.90
12446;DHT22;6287;50.984;7.022;2022-12-11T14:56:29;2.40;99.90
12446;DHT22;6287;50.984;7.022;2022-12-11T14:59:04;2.40;99.90
12446;DHT22;6287;50.984;7.022;2022-12-11T15:01:35;2.30;99.90
12446;DHT22;6287;50.984;7.022;2022-12-11T15:06:46;2.30;99.90
12446;DHT22;6287;50.984;7.022;2022-12-11T15:09:26;2.30;99.90
12446;DHT22;6287;50.984;7.022;2022-12-11T15:11:59;2.30;99.90
12446;DHT22;6287;50.984;7.022;2022-12-11T15:14:32;2.20;99.90
12446;DHT22;6287;50.984;7.022;2022-12-11T15:16:59;2.20;99.90
12446;DHT22;6287;50.984;7.022;2022-12-11T15:19:29;2.20;99.90
12446;DHT22;6287;50.984;7.022;2022-12-11T15:22:04;2.20;99.90
12446;DHT22;6287;50.984;7.022;2022-12-11T15:24:41;2.10;99.90
12446;DHT22;6287;50.984;7.022;2022-12-11T15:29:45;2.10;99.90
12446;DHT22;6287;50.984;7.022;2022-12-11T15:34:42;2.10;99.90
12446;DHT22;6287;50.984;7.022;2022-12-11T15:39:49;2.10;99.90
12446;DHT22;6287;50.984;7.022;2022-12-11T15:45:00;2.10;99.90
12446;DHT22;6287;50.984;7.022;2022-12-11T15:47:30;2.10;99.90
12446;DHT22;6287;50.984;7.022;2022-12-11T15:50:00;2.10;99.90
12446;DHT22;6287;50.984;7.022;2022-12-11T15:52:28;2.10;99.90
12446;DHT22;6287;50.984;7.022;2022-12-11T15:54:56;2.10;99.90
12446;DHT22;6287;50.984;7.022;2022-12-11T15:57:29;2.10;99.90
12446;DHT22;6287;50.984;7.022;2022-12-11T15:59:57;2.10;99.90
12446;DHT22;6287;50.984;7.022;2022-12-11T16:02:26;2.10;99.90
12446;DHT22;6287;50.984;7.022;2022-12-11T16:04:52;2.10;99.90
12446;DHT22;6287;50.984;7.022;2022-12-11T16:07:25;2.10;99.90
12446;DHT22;6287;50.984;7.022;2022-12-11T16:09:53;2.10;99.90
12446;DHT22;6287;50.984;7.022;2022-12-11T16:12:23;2.10;99.90
12446;DHT22;6287;50.984;7.022;2022-12-11T16:14:49;2.10;99.90
12446;DHT22;6287;50.984;7.022;2022-12-11T16:17:17;2.10;99.90
12446;DHT22;6287;50.984;7.022;2022-12-11T16:19:43;2.10;99.90
12446;DHT22;6287;50.984;7.022;2022-12-11T16:22:11;2.10;99.90
12446;DHT22;6287;50.984;7.022;2022-12-11T16:24:37;2.10;99.90
12446;DHT22;6287;50.984;7.022;2022-12-11T16:27:09;2.00;99.90
12446;DHT22;6287;50.984;7.022;2022-12-11T16:29:41;2.00;99.90
12446;DHT22;6287;50.984;7.022;2022-12-11T16:32:07;2.00;99.90
12446;DHT22;6287;50.984;7.022;2022-12-11T16:34:35;4.30;99.90
12446;DHT22;6287;50.984;7.022;2022-12-11T16:37:01;2.00;99.90
12446;DHT22;6287;50.984;7.022;2022-12-11T16:39:30;2.10;99.90
12446;DHT22;6287;50.984;7.022;2022-12-11T16:41:58;2.00;99.90
12446;DHT22;6287;50.984;7.022;2022-12-11T16:44:26;2.00;99.90
12446;DHT22;6287;50.984;7.022;2022-12-11T16:46:52;2.00;99.90
12446;DHT22;6287;50.984;7.022;2022-12-11T16:49:21;2.00;99.90
12446;DHT22;6287;50.984;7.022;2022-12-11T16:51:49;2.00;99.90
12446;DHT22;6287;50.984;7.022;2022-12-11T16:54:15;2.00;99.90
12446;DHT22;6287;50.984;7.022;2022-12-11T16:56:43;1.90;99.90
12446;DHT22;6287;50.984;7.022;2022-12-11T16:59:10;2.00;99.90
12446;DHT22;6287;50.984;7.022;2022-12-11T17:01:37;2.00;99.90
12446;DHT22;6287;50.984;7.022;2022-12-11T17:06:31;2.10;99.90
12446;DHT22;6287;50.984;7.022;2022-12-11T17:09:01;2.00;99.90
12446;DHT22;6287;50.984;7.022;2022-12-11T17:11:27;2.00;99.90
12446;DHT22;6287;50.984;7.022;2022-12-11T17:13:57;2.00;99.90
12446;DHT22;6287;50.984;7.022;2022-12-11T17:16:24;2.10;99.90
12446;DHT22;6287;50.984;7.022;2022-12-11T17:18:53;2.10;99.90
12446;DHT22;6287;50.984;7.022;2022-12-11T17:21:22;2.10;99.90
12446;DHT22;6287;50.984;7.022;2022-12-11T17:23:48;2.10;99.90
12446;DHT22;6287;50.984;7.022;2022-12-11T17:26:15;2.00;99.90
12446;DHT22;6287;50.984;7.022;2022-12-11T17:28:43;2.00;99.90
12446;DHT22;6287;50.984;7.022;2022-12-11T17:31:13;2.00;99.90
12446;DHT22;6287;50.984;7.022;2022-12-11T17:36:06;1.90;99.90
12446;DHT22;6287;50.984;7.022;2022-12-11T17:40:59;1.90;99.90
12446;DHT22;6287;50.984;7.022;2022-12-11T17:45:52;1.90;99.90
12446;DHT22;6287;50.984;7.022;2022-12-11T17:48:21;1.80;99.90
12446;DHT22;6287;50.984;7.022;2022-12-11T17:50:49;1.80;99.90
12446;DHT22;6287;50.984;7.022;2022-12-11T17:53:19;1.80;99.90
12446;DHT22;6287;50.984;7.022;2022-12-11T17:55:52;1.80;99.90
12446;DHT22;6287;50.984;7.022;2022-12-11T17:58:22;1.80;99.90
12446;DHT22;6287;50.984;7.022;2022-12-11T18:00:53;1.90;99.90
12446;DHT22;6287;50.984;7.022;2022-12-11T18:03:20;1.80;99.90
12446;DHT22;6287;50.984;7.022;2022-12-11T18:05:49;1.90;99.90
12446;DHT22;6287;50.984;7.022;2022-12-11T18:08:18;1.80;99.90
12446;DHT22;6287;50.984;7.022;2022-12-11T18:10:48;1.90;99.90
12446;DHT22;6287;50.984;7.022;2022-12-11T18:13:14;1.80;99.90
12446;DHT22;6287;50.984;7.022;2022-12-11T18:15:40;1.80;99.90
12446;DHT22;6287;50.984;7.022;2022-12-11T18:18:07;1.80;99.90
12446;DHT22;6287;50.984;7.022;2022-12-11T18:20:36;1.70;99.90
12446;DHT22;6287;50.984;7.022;2022-12-11T18:23:03;1.80;99.90
12446;DHT22;6287;50.984;7.022;2022-12-11T18:25:31;1.80;99.90
12446;DHT22;6287;50.984;7.022;2022-12-11T18:27:57;1.90;99.90